Time;durP1;ratioP1;P1;durP2;ratioP2;P2;SDS_P1;SDS_P2;PMS_P1;PMS_P2;Temp;Humidity;BMP_temperature;BMP_pressure;BME280_temperature;BME280_humidity;BME280_pressure;Samples;Min_cycle;Max_cycle;Signal;HPM_P1;HPM_P2
2022/01/20 00:00:53;;;;;;;2.07;2.07;;;16.40;65.10;;;;;;5070633;28;44043;-71
2022/01/20 00:03:24;;;;;;;2.20;2.10;;;16.40;65.30;;;;;;5087131;28;44010;-71
2022/01/20 00:09:04;;;;;;;2.37;2.30;;;16.30;65.30;;;;;;5047174;28;44053;-71
2022/01/20 00:28:13;;;;;;;1.90;1.90;;;16.70;64.60;;;;;;5072437;28;44114;-70
2022/01/20 00:30:47;;;;;;;1.93;1.93;;;16.80;64.00;;;;;;5085788;27;44109;-71
2022/01/20 00:33:21;;;;;;;2.10;2.10;;;16.80;63.90;;;;;;5070431;28;45284;-70
2022/01/20 00:38:37;;;;;;;1.73;1.73;;;16.70;64.10;;;;;;5086740;28;43984;-71
2022/01/20 00:41:07;;;;;;;1.93;1.93;;;16.60;64.30;;;;;;5052673;28;46746;-70
2022/01/20 00:43:37;;;;;;;2.03;2.03;;;16.60;64.60;;;;;;5087104;27;43838;-70
2022/01/20 00:46:06;;;;;;;2.07;2.07;;;16.50;64.80;;;;;;5069585;27;44031;-71
2022/01/20 00:48:34;;;;;;;1.70;1.70;;;16.50;64.80;;;;;;5086312;28;43550;-70
2022/01/20 00:51:03;;;;;;;2.10;2.10;;;16.50;64.90;;;;;;5086315;28;44117;-70
2022/01/20 00:53:31;;;;;;;1.90;1.90;;;16.40;65.00;;;;;;5069256;28;43944;-70
2022/01/20 00:55:59;;;;;;;1.80;1.80;;;16.40;65.10;;;;;;5086080;27;44107;-70
2022/01/20 00:58:28;;;;;;;2.00;2.00;;;16.40;65.20;;;;;;5069844;28;44087;-70
2022/01/20 01:00:58;;;;;;;2.00;1.97;;;16.40;65.40;;;;;;5085807;28;43979;-70
2022/01/20 01:03:28;;;;;;;2.00;2.00;;;16.50;65.10;;;;;;5069452;28;43988;-70
2022/01/20 01:06:07;;;;;;;1.90;1.90;;;16.50;64.70;;;;;;5087383;27;44010;-71
2022/01/20 01:08:37;;;;;;;1.83;1.83;;;16.50;64.60;;;;;;5086970;28;43977;-70
2022/01/20 01:11:05;;;;;;;1.73;1.73;;;16.50;64.80;;;;;;5069150;28;45974;-70
2022/01/20 01:13:34;;;;;;;1.90;1.90;;;16.50;64.70;;;;;;5068905;28;44881;-71
2022/01/20 01:16:06;;;;;;;1.80;1.80;;;16.50;64.90;;;;;;5085867;28;44011;-70
2022/01/20 01:21:29;;;;;;;1.80;1.80;;;16.40;65.10;;;;;;5086011;28;43845;-70
2022/01/20 01:23:58;;;;;;;1.97;1.97;;;16.40;65.20;;;;;;5085536;28;43952;-70
2022/01/20 01:26:28;;;;;;;1.80;1.80;;;16.30;65.30;;;;;;5068996;28;43982;-70
2022/01/20 01:28:58;;;;;;;2.00;2.00;;;16.30;65.30;;;;;;5069427;28;43562;-70
2022/01/20 01:31:35;;;;;;;1.83;1.83;;;16.30;65.40;;;;;;5068465;28;44367;-70
2022/01/20 01:34:06;;;;;;;1.70;1.70;;;16.30;65.40;;;;;;5085986;28;43954;-71
2022/01/20 01:36:48;;;;;;;1.90;1.83;;;16.30;65.40;;;;;;5069039;28;43957;-70
2022/01/20 01:39:16;;;;;;;1.73;1.73;;;16.30;65.50;;;;;;5071136;28;44097;-70
2022/01/20 01:41:44;;;;;;;1.70;1.70;;;16.40;65.60;;;;;;5085053;28;45022;-71
2022/01/20 01:44:20;;;;;;;1.87;1.87;;;16.50;65.40;;;;;;5068487;28;43937;-70
2022/01/20 01:46:51;;;;;;;1.77;1.77;;;16.60;64.80;;;;;;5070146;28;44004;-70
2022/01/20 01:49:20;;;;;;;1.70;1.70;;;16.80;64.30;;;;;;5085951;28;43884;-70
2022/01/20 01:51:50;;;;;;;1.80;1.80;;;16.80;63.90;;;;;;5085556;28;44009;-71
2022/01/20 01:54:18;;;;;;;1.80;1.80;;;16.80;63.80;;;;;;5068539;28;44157;-70
2022/01/20 01:56:48;;;;;;;1.67;1.67;;;16.80;64.00;;;;;;5085327;28;43925;-70
2022/01/20 01:59:22;;;;;;;1.70;1.70;;;16.70;64.20;;;;;;5071360;28;43481;-70
2022/01/20 02:02:07;;;;;;;1.50;1.50;;;16.60;64.40;;;;;;5074971;28;43961;-69
2022/01/20 02:04:42;;;;;;;1.70;1.70;;;16.50;64.60;;;;;;5089152;28;43423;-69
2022/01/20 02:08:03;;;;;;;1.90;1.90;;;16.50;64.70;;;;;;5086023;28;43861;-71
2022/01/20 02:19:10;;;;;;;1.70;1.70;;;16.40;65.30;;;;;;5071893;28;43871;-70
2022/01/20 02:21:48;;;;;;;1.77;1.77;;;16.40;65.40;;;;;;5072823;28;43380;-70
2022/01/20 02:24:18;;;;;;;1.77;1.77;;;16.50;65.30;;;;;;5083153;28;44197;-71
2022/01/20 02:26:46;;;;;;;1.67;1.67;;;16.60;65.60;;;;;;5054719;28;44027;-70
2022/01/20 02:29:21;;;;;;;1.57;1.57;;;16.60;65.50;;;;;;5072909;28;44100;-70
2022/01/20 02:31:54;;;;;;;1.77;1.77;;;16.60;65.60;;;;;;5072092;28;43955;-70
2022/01/20 02:34:23;;;;;;;2.00;2.00;;;16.50;64.70;;;;;;5089617;27;44020;-70
2022/01/20 02:36:53;;;;;;;1.73;1.73;;;16.50;64.90;;;;;;5054911;28;44063;-70
2022/01/20 02:39:41;;;;;;;1.60;1.60;;;16.50;65.00;;;;;;5088529;28;44051;-70
2022/01/20 02:45:02;;;;;;;1.60;1.60;;;16.40;65.20;;;;;;5083918;28;45297;-71
2022/01/20 02:47:32;;;;;;;1.73;1.73;;;16.40;65.30;;;;;;5071680;28;45918;-71
2022/01/20 02:50:01;;;;;;;1.60;1.60;;;16.30;65.30;;;;;;5088105;27;43913;-70
2022/01/20 02:52:35;;;;;;;1.50;1.50;;;16.30;65.30;;;;;;5088331;28;43999;-71
2022/01/20 02:55:03;;;;;;;1.73;1.73;;;16.30;65.40;;;;;;5089090;27;44057;-71
2022/01/20 02:57:32;;;;;;;1.67;1.67;;;16.30;65.40;;;;;;5087884;28;44357;-71
2022/01/20 03:00:00;;;;;;;1.60;1.60;;;16.30;65.50;;;;;;5071149;28;43923;-70
2022/01/20 03:02:29;;;;;;;1.60;1.60;;;16.30;65.60;;;;;;5071328;28;43621;-70
2022/01/20 03:04:58;;;;;;;1.70;1.70;;;16.40;65.40;;;;;;5071089;28;43901;-70
2022/01/20 03:07:32;;;;;;;1.50;1.50;;;16.60;65.10;;;;;;5071988;28;44034;-70
2022/01/20 03:10:03;;;;;;;1.50;1.50;;;16.70;64.50;;;;;;5087189;28;43988;-70
2022/01/20 03:12:31;;;;;;;1.60;1.60;;;16.80;64.10;;;;;;5087878;28;44027;-70
2022/01/20 03:15:01;;;;;;;1.60;1.60;;;16.80;64.00;;;;;;5088841;27;43981;-70
2022/01/20 03:17:32;;;;;;;1.60;1.60;;;16.70;64.10;;;;;;5071144;28;44505;-70
2022/01/20 03:20:01;;;;;;;1.40;1.40;;;16.70;64.30;;;;;;5071377;28;43980;-71
2022/01/20 03:22:30;;;;;;;1.67;1.67;;;16.60;64.50;;;;;;5064947;28;43880;-71
2022/01/20 03:24:59;;;;;;;1.70;1.70;;;16.60;64.80;;;;;;5081939;28;45177;-70
2022/01/20 03:27:29;;;;;;;1.50;1.50;;;16.50;64.70;;;;;;5064315;28;43963;-71
2022/01/20 03:29:57;;;;;;;1.60;1.60;;;16.50;64.90;;;;;;5043890;28;43775;-71
2022/01/20 03:32:25;;;;;;;1.70;1.70;;;16.40;65.00;;;;;;5087864;28;43802;-71
2022/01/20 03:34:55;;;;;;;1.70;1.70;;;16.40;65.10;;;;;;5070411;28;44088;-72
2022/01/20 03:37:24;;;;;;;1.60;1.60;;;16.40;65.20;;;;;;5087209;28;43957;-70
2022/01/20 03:40:01;;;;;;;1.57;1.57;;;16.40;65.20;;;;;;5071985;28;43899;-71
2022/01/20 03:42:31;;;;;;;1.60;1.60;;;16.40;65.40;;;;;;5087669;28;43477;-70
2022/01/20 03:44:59;;;;;;;1.70;1.70;;;16.40;65.30;;;;;;5070247;28;43924;-70
2022/01/20 03:47:28;;;;;;;1.63;1.63;;;16.50;64.80;;;;;;5053460;28;45827;-71
2022/01/20 03:50:08;;;;;;;1.50;1.50;;;16.60;64.80;;;;;;5088612;27;43466;-70
2022/01/20 03:52:37;;;;;;;1.50;1.50;;;16.60;64.80;;;;;;5070574;28;43948;-70
2022/01/20 03:55:07;;;;;;;1.60;1.60;;;16.50;64.70;;;;;;5070022;28;44037;-70
2022/01/20 03:57:58;;;;;;;1.60;1.60;;;16.50;64.90;;;;;;5073396;28;43860;-70
2022/01/20 04:00:31;;;;;;;1.63;1.63;;;16.40;65.00;;;;;;5055194;28;43904;-70
2022/01/20 04:03:21;;;;;;;1.70;1.70;;;16.40;65.10;;;;;;5059971;28;44052;-70
2022/01/20 04:06:00;;;;;;;1.90;1.90;;;16.40;65.30;;;;;;5071762;28;43995;-70
2022/01/20 04:08:39;;;;;;;1.70;1.70;;;16.30;65.30;;;;;;5071353;28;44104;-70
2022/01/20 04:11:08;;;;;;;1.60;1.60;;;16.30;65.40;;;;;;5069875;28;44007;-71
2022/01/20 04:13:39;;;;;;;1.67;1.67;;;16.30;65.40;;;;;;5070058;28;44294;-70
2022/01/20 04:16:18;;;;;;;1.43;1.43;;;16.30;65.40;;;;;;5071238;28;43994;-71
2022/01/20 04:18:52;;;;;;;1.50;1.50;;;16.30;65.50;;;;;;5053631;28;45544;-70
2022/01/20 04:21:21;;;;;;;1.60;1.60;;;16.30;65.50;;;;;;5086194;27;43414;-70
2022/01/20 04:23:50;;;;;;;1.50;1.50;;;16.30;65.70;;;;;;5053558;28;43886;-71
2022/01/20 04:26:19;;;;;;;1.47;1.47;;;16.40;65.40;;;;;;5069983;28;44228;-71
2022/01/20 04:28:53;;;;;;;1.57;1.57;;;16.50;65.70;;;;;;5069777;28;44316;-72
2022/01/20 04:31:22;;;;;;;1.50;1.50;;;16.70;64.50;;;;;;5086303;28;43919;-71
2022/01/20 04:33:51;;;;;;;1.73;1.73;;;16.80;64.10;;;;;;5070439;28;44172;-70
2022/01/20 04:36:19;;;;;;;1.43;1.43;;;16.80;64.00;;;;;;5069689;28;46216;-71
2022/01/20 04:38:48;;;;;;;1.50;1.50;;;16.70;64.10;;;;;;5053120;28;45976;-71
2022/01/20 04:41:16;;;;;;;1.70;1.70;;;16.70;64.40;;;;;;5069552;28;44055;-70
2022/01/20 04:43:45;;;;;;;1.40;1.40;;;16.60;64.50;;;;;;5069999;28;43941;-71
2022/01/20 04:46:24;;;;;;;1.53;1.53;;;16.50;64.70;;;;;;5069629;28;45672;-70
2022/01/20 04:49:12;;;;;;;1.50;1.50;;;16.50;64.80;;;;;;5087595;27;44025;-72
2022/01/20 04:57:17;;;;;;;1.70;1.70;;;16.40;65.20;;;;;;5085978;28;44097;-70
2022/01/20 04:59:47;;;;;;;1.67;1.67;;;16.40;65.30;;;;;;5070240;28;44881;-70
2022/01/20 05:02:17;;;;;;;1.90;1.80;;;16.30;65.20;;;;;;5052587;28;44085;-71
2022/01/20 05:04:54;;;;;;;1.77;1.77;;;16.30;65.10;;;;;;5070815;28;44167;-70
2022/01/20 05:07:44;;;;;;;1.70;1.70;;;16.40;65.10;;;;;;5065593;28;45044;-70
2022/01/20 05:10:14;;;;;;;1.67;1.67;;;16.60;64.70;;;;;;5063176;28;44024;-70
2022/01/20 05:15:33;;;;;;;1.50;1.50;;;16.60;64.20;;;;;;5071861;28;43956;-70
2022/01/20 05:18:05;;;;;;;1.80;1.80;;;16.60;64.50;;;;;;5069400;28;43848;-70
2022/01/20 05:20:33;;;;;;;1.80;1.70;;;16.50;64.60;;;;;;5068915;28;44017;-71
2022/01/20 05:23:01;;;;;;;1.90;1.90;;;16.50;64.70;;;;;;5068764;28;44065;-71
2022/01/20 05:25:30;;;;;;;1.90;1.80;;;16.40;65.00;;;;;;5069155;28;43490;-71
2022/01/20 05:27:59;;;;;;;1.70;1.70;;;16.40;65.10;;;;;;5085640;28;44246;-70
2022/01/20 05:30:27;;;;;;;1.70;1.60;;;16.30;65.20;;;;;;5068244;28;44107;-71
2022/01/20 05:33:29;;;;;;;1.60;1.60;;;16.30;65.40;;;;;;5074376;27;43920;-71
2022/01/20 05:35:57;;;;;;;1.70;1.70;;;16.30;65.50;;;;;;5086044;28;43523;-71
2022/01/20 05:38:27;;;;;;;1.50;1.50;;;16.30;65.50;;;;;;5052176;28;44041;-71
2022/01/20 05:40:55;;;;;;;1.83;1.73;;;16.20;65.50;;;;;;5068660;28;44746;-70
2022/01/20 05:43:24;;;;;;;1.77;1.67;;;16.20;65.60;;;;;;5051716;28;43980;-70
2022/01/20 05:45:53;;;;;;;1.80;1.80;;;16.30;65.70;;;;;;5086220;28;44055;-70
2022/01/20 05:48:32;;;;;;;1.50;1.50;;;16.40;65.30;;;;;;5085738;28;44719;-71
2022/01/20 05:51:20;;;;;;;1.70;1.70;;;16.60;64.90;;;;;;5082914;28;44012;-70
2022/01/20 05:53:48;;;;;;;1.63;1.63;;;16.70;64.30;;;;;;5068596;28;43937;-70
2022/01/20 05:56:17;;;;;;;1.63;1.63;;;16.70;64.10;;;;;;5052095;28;43839;-71
2022/01/20 05:58:47;;;;;;;1.67;1.67;;;16.70;64.20;;;;;;5068404;28;43957;-70
2022/01/20 06:01:18;;;;;;;1.73;1.73;;;16.60;64.40;;;;;;5069224;28;44355;-70
2022/01/20 06:03:46;;;;;;;1.67;1.67;;;16.60;64.60;;;;;;5085037;28;43960;-70
2022/01/20 06:06:22;;;;;;;1.60;1.60;;;16.50;64.70;;;;;;5053599;28;43985;-71
2022/01/20 06:08:50;;;;;;;1.80;1.70;;;16.50;64.70;;;;;;5068580;28;45281;-72
2022/01/20 06:11:21;;;;;;;1.87;1.77;;;16.40;64.90;;;;;;5068833;28;43966;-71
2022/01/20 06:13:52;;;;;;;1.60;1.60;;;16.40;65.00;;;;;;5085477;28;43863;-71
2022/01/20 06:16:21;;;;;;;1.60;1.60;;;16.40;65.10;;;;;;5069034;28;43595;-70
2022/01/20 06:18:49;;;;;;;1.67;1.67;;;16.40;65.20;;;;;;5068559;28;45629;-71
2022/01/20 06:21:19;;;;;;;1.70;1.70;;;16.30;65.20;;;;;;5052210;28;44767;-71
2022/01/20 06:23:48;;;;;;;1.73;1.73;;;16.30;65.30;;;;;;5068728;28;43986;-70
2022/01/20 06:26:18;;;;;;;1.50;1.50;;;16.30;65.40;;;;;;5069130;28;43933;-70
2022/01/20 06:28:46;;;;;;;1.73;1.73;;;16.50;65.20;;;;;;5051261;28;45803;-70
2022/01/20 06:31:16;;;;;;;1.60;1.60;;;16.50;64.80;;;;;;5067500;28;44699;-70
2022/01/20 06:33:47;;;;;;;1.70;1.70;;;16.50;64.70;;;;;;5084659;28;43940;-70
2022/01/20 06:36:16;;;;;;;2.00;1.90;;;16.50;64.70;;;;;;5052363;28;43626;-70
2022/01/20 06:38:47;;;;;;;1.83;1.83;;;16.50;64.80;;;;;;5084837;28;43881;-71
2022/01/20 06:41:16;;;;;;;1.90;1.90;;;16.40;64.90;;;;;;5084617;28;43899;-71
2022/01/20 06:43:44;;;;;;;2.07;1.97;;;16.40;65.10;;;;;;5084757;28;43431;-71
2022/01/20 06:46:15;;;;;;;1.70;1.70;;;16.30;65.20;;;;;;5071057;28;44050;-71
2022/01/20 06:48:56;;;;;;;1.60;1.60;;;16.30;65.30;;;;;;5067794;28;45650;-70
2022/01/20 06:51:48;;;;;;;1.70;1.70;;;16.30;65.40;;;;;;5079796;28;43463;-71
2022/01/20 06:54:17;;;;;;;1.60;1.60;;;16.20;65.40;;;;;;5088072;28;43998;-71
2022/01/20 06:56:46;;;;;;;1.90;1.80;;;16.20;65.50;;;;;;5054636;28;44012;-70
2022/01/20 06:59:16;;;;;;;1.70;1.70;;;16.20;65.60;;;;;;5071132;28;44022;-70
2022/01/20 07:01:45;;;;;;;1.80;1.80;;;16.20;65.60;;;;;;5054234;28;45443;-70
2022/01/20 07:04:27;;;;;;;2.00;2.00;;;16.20;65.70;;;;;;5073152;28;43980;-71
2022/01/20 07:06:56;;;;;;;2.00;1.90;;;16.30;65.80;;;;;;5054608;28;43618;-70
2022/01/20 07:09:44;;;;;;;1.60;1.60;;;16.40;65.40;;;;;;5071096;28;43951;-69
2022/01/20 07:12:23;;;;;;;1.80;1.80;;;16.60;64.80;;;;;;5071265;28;44145;-71
2022/01/20 07:14:52;;;;;;;1.70;1.70;;;16.70;64.30;;;;;;5087645;28;43832;-70
2022/01/20 07:17:20;;;;;;;1.90;1.90;;;16.80;63.90;;;;;;5071484;28;44091;-71
2022/01/20 07:19:51;;;;;;;1.93;1.93;;;16.80;63.90;;;;;;5072005;28;45429;-71
2022/01/20 07:22:22;;;;;;;1.70;1.70;;;16.70;64.10;;;;;;5055336;28;44013;-71
2022/01/20 07:24:55;;;;;;;1.80;1.80;;;16.60;64.30;;;;;;5071833;28;43877;-69
2022/01/20 07:27:34;;;;;;;1.90;1.90;;;16.60;64.60;;;;;;5088106;28;43955;-71
2022/01/20 07:30:23;;;;;;;2.00;2.00;;;16.50;64.70;;;;;;5073319;28;45754;-70
2022/01/20 07:32:51;;;;;;;2.17;2.07;;;16.50;64.90;;;;;;5070924;28;45147;-70
2022/01/20 07:35:21;;;;;;;2.13;2.13;;;16.40;64.90;;;;;;5071539;28;43937;-71
2022/01/20 07:37:49;;;;;;;1.80;1.80;;;16.40;65.00;;;;;;5071059;28;43885;-70
2022/01/20 07:40:20;;;;;;;2.07;1.97;;;16.40;65.10;;;;;;5070873;28;44059;-71
2022/01/20 07:42:48;;;;;;;1.90;1.90;;;16.40;65.20;;;;;;5087643;28;44005;-70
2022/01/20 07:45:36;;;;;;;1.90;1.90;;;16.40;65.40;;;;;;5073298;28;43311;-71
2022/01/20 07:48:23;;;;;;;1.87;1.87;;;16.40;65.30;;;;;;5086171;28;43974;-71
2022/01/20 07:51:17;;;;;;;1.90;1.90;;;16.50;64.70;;;;;;5084306;28;43960;-71
2022/01/20 07:53:45;;;;;;;1.90;1.90;;;16.50;64.50;;;;;;5063977;28;44705;-71
2022/01/20 07:56:15;;;;;;;2.13;2.03;;;16.50;64.70;;;;;;5087188;27;43375;-70
2022/01/20 07:58:45;;;;;;;1.90;1.80;;;16.50;64.70;;;;;;5071021;28;44117;-71
2022/01/20 08:01:14;;;;;;;2.17;2.07;;;16.40;64.80;;;;;;5070368;28;43926;-70
2022/01/20 08:03:52;;;;;;;1.70;1.70;;;16.40;65.00;;;;;;5071985;28;44075;-70
2022/01/20 08:06:24;;;;;;;1.80;1.80;;;16.40;65.10;;;;;;5071085;28;43972;-71
2022/01/20 08:09:02;;;;;;;1.80;1.80;;;16.30;65.20;;;;;;5056666;28;44163;-71
2022/01/20 08:11:49;;;;;;;1.70;1.70;;;16.30;65.30;;;;;;5087183;28;45808;-70
2022/01/20 08:14:36;;;;;;;2.10;2.00;;;16.30;65.50;;;;;;5054622;28;43849;-70
2022/01/20 08:17:04;;;;;;;2.20;2.10;;;16.30;65.60;;;;;;5086765;28;43933;-70
2022/01/20 08:19:36;;;;;;;1.83;1.83;;;16.30;65.60;;;;;;5070805;28;43966;-71
2022/01/20 08:22:05;;;;;;;1.90;1.90;;;16.30;65.70;;;;;;5070205;28;45950;-70
2022/01/20 08:24:54;;;;;;;1.97;1.90;;;16.20;65.70;;;;;;5086545;28;45095;-70
2022/01/20 08:27:24;;;;;;;1.70;1.70;;;16.30;65.70;;;;;;5087012;28;43961;-71
2022/01/20 08:29:53;;;;;;;2.27;2.17;;;16.50;65.30;;;;;;5096732;27;44250;-71
2022/01/20 08:32:25;;;;;;;2.13;1.97;;;16.60;64.80;;;;;;5070425;28;44023;-71
2022/01/20 08:35:09;;;;;;;2.23;2.13;;;16.80;64.20;;;;;;5071333;28;43493;-70
2022/01/20 08:37:56;;;;;;;4.47;2.53;;;16.80;63.70;;;;;;5086610;28;43836;-71
2022/01/20 08:40:27;;;;;;;3.30;2.77;;;16.80;63.90;;;;;;5088053;27;44043;-70
2022/01/20 08:42:56;;;;;;;3.13;2.90;;;16.70;64.10;;;;;;5086400;28;44684;-70
2022/01/20 08:45:26;;;;;;;5.50;3.50;;;16.60;64.30;;;;;;5086206;28;45337;-70
2022/01/20 08:47:57;;;;;;;4.67;3.43;;;16.60;64.60;;;;;;5086442;28;44069;-71
2022/01/20 08:50:36;;;;;;;8.53;3.57;;;16.50;64.70;;;;;;5071790;28;44243;-71
2022/01/20 08:53:04;;;;;;;7.47;4.30;;;16.50;64.90;;;;;;5069411;28;43916;-70
2022/01/20 08:55:33;;;;;;;6.17;3.90;;;16.40;65.00;;;;;;5069337;28;43932;-69
2022/01/20 08:58:15;;;;;;;8.13;4.23;;;16.40;65.10;;;;;;5071495;28;43897;-71
2022/01/20 09:00:43;;;;;;;8.77;4.77;;;16.30;65.10;;;;;;5069699;28;44024;-71
2022/01/20 09:03:12;;;;;;;10.93;4.60;;;16.30;65.20;;;;;;5069440;28;45700;-71
2022/01/20 09:05:42;;;;;;;11.20;4.77;;;16.30;65.50;;;;;;5069328;28;43983;-70
2022/01/20 09:08:19;;;;;;;10.00;5.00;;;16.40;65.30;;;;;;5070363;28;43972;-71
2022/01/20 09:10:55;;;;;;;10.50;4.73;;;16.50;64.80;;;;;;5070651;28;44048;-70
2022/01/20 09:16:21;;;;;;;8.87;5.03;;;16.50;64.70;;;;;;5072502;28;44134;-70
2022/01/20 09:19:05;;;;;;;7.97;4.67;;;16.50;65.00;;;;;;5071341;28;43426;-71
2022/01/20 09:21:35;;;;;;;9.27;5.00;;;16.40;65.10;;;;;;5086384;28;43458;-70
2022/01/20 09:24:06;;;;;;;8.47;4.70;;;16.40;65.20;;;;;;5068910;28;46022;-70
2022/01/20 09:26:35;;;;;;;7.37;4.87;;;16.30;65.30;;;;;;5085949;28;43480;-71
2022/01/20 09:29:08;;;;;;;12.80;5.60;;;16.30;65.40;;;;;;5062987;28;43909;-71
2022/01/20 09:31:39;;;;;;;10.97;5.27;;;16.30;65.50;;;;;;5087484;27;44077;-71
2022/01/20 09:34:09;;;;;;;6.80;4.80;;;16.20;65.50;;;;;;5069871;28;43957;-70
2022/01/20 09:36:42;;;;;;;10.53;5.17;;;16.30;65.70;;;;;;5053124;28;43377;-70
2022/01/20 09:39:10;;;;;;;7.97;5.00;;;16.30;65.70;;;;;;5068908;28;43915;-70
2022/01/20 09:42:06;;;;;;;9.63;5.03;;;16.20;65.60;;;;;;5081886;28;43928;-70
2022/01/20 09:44:42;;;;;;;12.30;5.03;;;16.20;65.60;;;;;;5069429;28;43991;-70
2022/01/20 09:47:10;;;;;;;7.23;4.63;;;16.30;65.80;;;;;;5068712;28;43419;-70
2022/01/20 09:49:59;;;;;;;9.27;5.30;;;16.40;65.40;;;;;;5085505;28;44058;-69
2022/01/20 09:52:35;;;;;;;8.43;4.90;;;16.60;64.80;;;;;;5070513;28;44038;-70
2022/01/20 09:55:34;;;;;;;8.03;4.63;;;16.70;64.40;;;;;;5085370;27;43966;-71
2022/01/20 09:58:03;;;;;;;8.53;4.97;;;16.80;64.00;;;;;;5068920;28;44028;-70
2022/01/20 10:00:33;;;;;;;7.83;4.63;;;16.70;63.90;;;;;;5068485;28;44012;-70
2022/01/20 10:03:06;;;;;;;7.83;4.87;;;16.70;64.20;;;;;;5085736;28;44012;-71
2022/01/20 10:05:35;;;;;;;7.80;4.63;;;16.60;64.50;;;;;;5085102;28;45967;-71
2022/01/20 10:08:09;;;;;;;7.50;4.80;;;16.50;64.70;;;;;;5068883;28;44016;-71
2022/01/20 10:10:47;;;;;;;6.13;4.70;;;16.50;64.80;;;;;;5085316;28;43921;-70
2022/01/20 10:13:33;;;;;;;6.80;4.97;;;16.40;64.90;;;;;;5071574;28;43561;-70
2022/01/20 10:16:10;;;;;;;6.37;4.53;;;16.40;65.10;;;;;;5069341;28;45556;-70
2022/01/20 10:18:48;;;;;;;6.33;4.77;;;16.40;65.20;;;;;;5069483;27;44174;-70
2022/01/20 10:21:18;;;;;;;6.30;4.20;;;16.40;65.40;;;;;;5088137;28;43869;-70
2022/01/20 10:23:54;;;;;;;6.27;4.60;;;16.30;65.40;;;;;;5073516;28;43965;-71
2022/01/20 10:26:42;;;;;;;7.37;4.60;;;16.30;65.60;;;;;;5074120;28;45474;-70
2022/01/20 10:29:10;;;;;;;7.17;4.60;;;16.30;65.50;;;;;;5088587;28;45081;-70
2022/01/20 10:31:41;;;;;;;6.93;4.30;;;16.40;65.10;;;;;;5071349;28;44041;-71
2022/01/20 10:34:22;;;;;;;5.57;4.40;;;16.50;64.70;;;;;;5072862;28;43634;-70
2022/01/20 10:36:53;;;;;;;7.27;4.60;;;16.50;64.80;;;;;;5071889;28;44068;-70
2022/01/20 10:39:38;;;;;;;6.37;4.30;;;16.50;65.00;;;;;;5088383;28;44105;-70
2022/01/20 10:42:08;;;;;;;6.27;4.33;;;16.40;65.00;;;;;;5055191;28;43967;-69
2022/01/20 10:44:41;;;;;;;5.53;4.00;;;16.40;65.20;;;;;;5088897;28;44007;-70
2022/01/20 10:47:24;;;;;;;5.20;4.50;;;16.30;65.30;;;;;;5083960;28;46273;-70
2022/01/20 10:49:53;;;;;;;7.87;4.83;;;16.30;65.40;;;;;;5071441;28;43396;-70
2022/01/20 10:52:27;;;;;;;6.47;4.30;;;16.30;65.50;;;;;;5071965;28;44021;-70
2022/01/20 10:54:58;;;;;;;5.17;4.13;;;16.30;65.60;;;;;;5088906;28;44030;-70
2022/01/20 10:57:31;;;;;;;5.97;4.10;;;16.30;65.60;;;;;;5088287;28;43953;-71
2022/01/20 11:00:03;;;;;;;5.87;4.53;;;16.20;65.70;;;;;;5071337;28;44077;-70
2022/01/20 11:02:55;;;;;;;8.37;4.93;;;16.20;65.60;;;;;;5073978;28;43909;-70
2022/01/20 11:05:25;;;;;;;5.30;4.17;;;16.20;65.60;;;;;;5071031;28;44039;-70
2022/01/20 11:07:56;;;;;;;7.60;4.60;;;16.20;65.90;;;;;;5055276;28;44028;-70
2022/01/20 11:10:26;;;;;;;4.40;3.90;;;16.30;65.60;;;;;;5071172;28;46057;-70
2022/01/20 11:13:13;;;;;;;5.27;4.00;;;16.50;65.20;;;;;;5085645;28;43353;-71
2022/01/20 11:15:47;;;;;;;4.50;3.80;;;16.70;64.60;;;;;;5072681;28;44006;-70
2022/01/20 11:18:17;;;;;;;4.73;3.80;;;16.70;64.10;;;;;;5054308;28;46421;-70
2022/01/20 11:20:48;;;;;;;5.27;3.90;;;16.70;64.90;;;;;;5054684;28;44718;-70
2022/01/20 11:23:21;;;;;;;4.23;3.90;;;16.60;64.50;;;;;;5071982;28;43400;-70
2022/01/20 11:26:13;;;;;;;7.60;3.87;;;16.50;64.60;;;;;;5049749;28;44072;-71
2022/01/20 11:28:58;;;;;;;3.87;3.47;;;16.50;64.90;;;;;;5059062;28;46701;-70
2022/01/20 11:31:53;;;;;;;4.73;3.70;;;16.40;65.00;;;;;;5087262;27;44250;-70
2022/01/20 11:34:58;;;;;;;4.63;3.90;;;16.40;65.20;;;;;;5075027;28;43964;-70
2022/01/20 11:37:26;;;;;;;6.73;4.10;;;16.30;65.30;;;;;;5071623;28;44009;-71
2022/01/20 11:40:07;;;;;;;4.17;3.73;;;16.30;65.40;;;;;;5087236;28;45022;-70
2022/01/20 11:42:35;;;;;;;4.83;3.70;;;16.30;65.50;;;;;;5053766;28;44733;-70
2022/01/20 11:45:29;;;;;;;4.67;4.00;;;16.30;65.50;;;;;;5053806;28;43462;-70
2022/01/20 11:47:57;;;;;;;4.47;3.53;;;16.30;65.70;;;;;;5071001;28;43928;-70
2022/01/20 11:50:28;;;;;;;4.10;3.70;;;16.40;65.40;;;;;;5070427;28;43939;-71
2022/01/20 11:52:56;;;;;;;3.40;3.10;;;16.40;64.80;;;;;;5088542;27;44238;-70
2022/01/20 11:55:29;;;;;;;4.17;3.40;;;16.50;64.90;;;;;;5070916;28;44002;-71
2022/01/20 11:57:58;;;;;;;3.83;3.53;;;16.40;64.80;;;;;;5087672;28;44019;-70
2022/01/20 12:00:29;;;;;;;4.07;3.50;;;16.40;65.00;;;;;;5070426;28;45685;-70
2022/01/20 12:02:57;;;;;;;5.27;3.70;;;16.40;65.10;;;;;;5086926;27;44066;-70
2022/01/20 12:05:37;;;;;;;4.80;3.77;;;16.30;65.20;;;;;;5071785;28;43961;-70
2022/01/20 12:08:28;;;;;;;3.40;3.20;;;16.30;65.30;;;;;;5087664;28;44234;-70
2022/01/20 12:11:00;;;;;;;3.33;3.13;;;16.30;65.50;;;;;;5086900;28;45267;-70
2022/01/20 12:13:30;;;;;;;3.63;3.17;;;16.30;65.60;;;;;;5053168;28;44042;-71
2022/01/20 12:16:00;;;;;;;3.90;3.20;;;16.20;65.60;;;;;;5069816;28;43909;-71
2022/01/20 12:18:28;;;;;;;3.87;3.43;;;16.20;65.60;;;;;;5071018;28;44095;-70
2022/01/20 12:21:00;;;;;;;3.57;3.17;;;16.20;65.60;;;;;;5069798;28;43914;-70
2022/01/20 12:23:29;;;;;;;3.70;3.10;;;16.20;65.60;;;;;;5086933;28;43961;-70
2022/01/20 12:26:02;;;;;;;3.43;3.13;;;16.20;65.70;;;;;;5069849;28;44024;-71
2022/01/20 12:28:31;;;;;;;3.17;2.90;;;16.30;65.80;;;;;;5063829;28;43862;-70
2022/01/20 12:31:01;;;;;;;3.20;2.90;;;16.40;65.40;;;;;;5079462;28;43989;-70
2022/01/20 12:33:31;;;;;;;4.67;3.20;;;16.50;64.80;;;;;;5080309;28;43403;-70
2022/01/20 12:36:03;;;;;;;3.00;2.80;;;16.70;64.50;;;;;;5086403;28;44325;-71
2022/01/20 12:38:33;;;;;;;2.90;2.70;;;16.70;63.90;;;;;;5070742;28;43958;-71
2022/01/20 12:41:03;;;;;;;3.23;3.00;;;16.70;63.80;;;;;;5086140;28;44192;-71
2022/01/20 12:43:40;;;;;;;5.47;3.13;;;16.70;64.10;;;;;;5068703;28;44921;-71
2022/01/20 12:46:09;;;;;;;3.80;3.50;;;16.60;64.30;;;;;;5069865;28;44068;-71
2022/01/20 12:48:39;;;;;;;4.63;3.57;;;16.60;64.70;;;;;;5087805;27;44066;-71
2022/01/20 12:51:10;;;;;;;4.50;3.50;;;16.50;64.70;;;;;;5069512;28;44119;-70
2022/01/20 12:53:40;;;;;;;4.23;3.53;;;16.40;64.80;;;;;;5086086;28;44024;-70
2022/01/20 12:56:10;;;;;;;6.00;3.63;;;16.40;65.00;;;;;;5086081;28;43962;-70
2022/01/20 12:58:46;;;;;;;5.37;3.80;;;16.30;65.10;;;;;;5086457;28;43923;-71
2022/01/20 13:01:14;;;;;;;6.00;3.77;;;16.40;65.30;;;;;;5069315;28;44092;-70
2022/01/20 13:03:43;;;;;;;7.37;4.20;;;16.30;65.30;;;;;;5069162;28;43818;-70
2022/01/20 13:06:21;;;;;;;6.30;3.80;;;16.30;65.40;;;;;;5069431;28;43984;-71
2022/01/20 13:08:57;;;;;;;6.43;4.07;;;16.30;65.40;;;;;;5087195;28;44053;-70
2022/01/20 13:11:34;;;;;;;8.33;4.53;;;16.40;65.10;;;;;;5052398;28;45666;-70
2022/01/20 13:14:02;;;;;;;6.23;3.77;;;16.50;64.70;;;;;;5069176;28;44002;-70
2022/01/20 13:16:31;;;;;;;6.93;4.33;;;16.50;64.80;;;;;;5052488;28;43477;-70
2022/01/20 13:19:00;;;;;;;6.10;4.23;;;16.50;64.80;;;;;;5052981;28;43990;-70
2022/01/20 13:21:41;;;;;;;7.33;4.40;;;16.40;64.80;;;;;;5085431;28;44000;-70
2022/01/20 13:24:10;;;;;;;6.57;4.17;;;16.40;65.10;;;;;;5085495;28;44169;-70
2022/01/20 13:26:46;;;;;;;7.17;3.93;;;16.40;65.20;;;;;;5069141;28;44013;-70
2022/01/20 13:29:14;;;;;;;8.73;4.77;;;16.30;65.20;;;;;;5069526;28;43440;-71
2022/01/20 13:31:43;;;;;;;7.73;4.43;;;16.30;65.30;;;;;;5068527;28;44031;-70
2022/01/20 13:34:13;;;;;;;8.00;4.60;;;16.30;65.40;;;;;;5086724;27;45444;-70
2022/01/20 13:36:45;;;;;;;7.87;4.10;;;16.30;65.40;;;;;;5069044;28;43964;-70
2022/01/20 13:39:13;;;;;;;6.87;4.20;;;16.30;65.50;;;;;;5079431;28;43477;-71
2022/01/20 13:41:43;;;;;;;7.07;4.43;;;16.30;65.60;;;;;;5068670;28;46409;-70
2022/01/20 13:47:05;;;;;;;8.50;4.57;;;16.20;65.50;;;;;;5071373;28;43878;-70
2022/01/20 13:49:34;;;;;;;7.67;4.40;;;16.30;65.60;;;;;;5052325;28;43859;-70
2022/01/20 13:52:06;;;;;;;7.13;4.40;;;16.40;65.30;;;;;;5052021;28;43825;-70
2022/01/20 13:54:39;;;;;;;6.17;4.27;;;16.50;64.70;;;;;;5071401;28;43921;-71
2022/01/20 13:57:37;;;;;;;7.27;4.17;;;16.70;64.30;;;;;;5078572;28;43861;-70
2022/01/20 14:00:10;;;;;;;7.27;4.10;;;16.80;63.80;;;;;;5094067;27;43998;-70
2022/01/20 14:02:38;;;;;;;8.50;4.30;;;16.70;63.70;;;;;;5092214;28;43988;-70
2022/01/20 14:05:09;;;;;;;6.67;4.47;;;16.70;63.90;;;;;;5074950;28;43925;-71
2022/01/20 14:07:39;;;;;;;9.67;4.40;;;16.60;64.10;;;;;;5092121;28;44593;-71